Holmes Beach, FL

10:25 AM EDT on July 29, 2015 (GMT -0400)
Anna Maria Island | | Change Station
CLOSE
Current Station
Personal Weather Station
Location: Anna Maria, FL
Elevation: 2 ft
Nearby Weather Stations

Elev 2 ft 27.53 °N, 82.73 °W | Updated 32 seconds ago

Partly Cloudy
Partly Cloudy
81.7 °F
Feels Like 91 °F
N
11.4
Wind Variable Wind from SW
Gusts 12.3 mph

Today
High -- | Low -- °F
--% Chance of Precip.
Yesterday
High -- | Low -- °F
Precip. -- in
6:52 AM 8:21 PM
Waxing Gibbous, 95% visible
Pressure 30.00 in
Visibility 10.0 miles
Clouds Scattered Clouds 1800 ft
Heat Index 91 °F
Dew Point 78 °F
Humidity 90%
Rainfall 0.00 in
Snow Depth Not available.
UV 1.0 out of 12
Pollen .90 out of 12
Air Quality Not available.
Flu Activity Not available.
SPECI KSRQ 291403Z 22008KT 10SM SCT018 28/23 A3000 RMK AO2 LTG DSNT S-W T02780233

More Conditions Fewer Conditions

Pressure 30.00 in
Visibility 10.0 miles
Clouds Scattered Clouds 1800 ft
Heat Index 91 °F
Dew Point 78 °F
Humidity 90%
Rainfall 0.00 in
Snow Depth Not available.
UV 1.0 out of 12
Pollen .90 out of 12
Air Quality Not available.
Flu Activity Not available.
SPECI KSRQ 291403Z 22008KT 10SM SCT018 28/23 A3000 RMK AO2 LTG DSNT S-W T02780233

More Conditions Fewer Conditions

10-Day Weather Forecast

×

Almanac

Astronomy

Jul. 29, 2015 Rise Set
Actual Time
Civil Twilight
Nautical Twilight
Astronomical Twilight
Moon
Length of Visible Light
Length of Day
Tomorrow will be .
, % of the Moon is Illuminated

Today's Extremes

State Highs State Lows

Community

WunderPhotos

Upload Photos

1,842,115 photos uploaded!

WunderBlogs® & News

Nearby

Air Quality

  Air Quality AQ Index Pollutant
Not available.

Snow Depth

Station Depth Elevation

Earthquake Activity

City Distance Mag. Time & Date
Minimum magnitude displayed is 2.5.

Coastal Water Temperatures

Place Temperature

Stations

Nearby Weather Stations

Station Location Temp. Windchill Dew Point Humidity Wind Precip. Elev Updated Type